Mount Clemens, MI

2:53 PM EDT on August 22, 2014 (GMT -0400)
Heydenreich & Cass, North Branch Valley sub | Change Station
CLOSE
Current Station
Personal Weather Station
Location: Clinton Twp, MI
Elevation: 595 ft
Nearby Weather Stations

Elev 595 ft 42.61 °N, 82.91 °W | Updated 9 minutes ago

Mostly Cloudy
Mostly Cloudy
81.4 °F
Feels Like 86 °F
N
1.0
Wind Variable Wind from ENE
Gusts 3.0 mph

Today
High -- | Low -- °F
--% Chance of Precip.
Yesterday
High -- | Low -- °F
Precip. -- in
6:45 AM 8:22 PM
Waning Crescent, 7% visible
Pressure 30.00 in
Visibility 10.0 miles
Clouds Few 3500 ft
Few 10000 ft
Mostly Cloudy 18000 ft
Heat Index 86 °F
Dew Point 73 °F
Humidity 75%
Rainfall -999.00 in
Snow Depth Not available.
UV 5 out of 12
Pollen 7.80 out of 12
Ozone Good
PM2.5 Moderate
Flu Activity Not available.
METAR KMTC 221755Z 10005KT 10SM FEW035 FEW100 BKN180 27/19 A2998 RMK SLP157 T02660187 10266 20200 55000

More Conditions Fewer Conditions

Pressure 30.00 in
Visibility 10.0 miles
Clouds Few 3500 ft
Few 10000 ft
Mostly Cloudy 18000 ft
Heat Index 86 °F
Dew Point 73 °F
Humidity 75%
Rainfall -999.00 in
Snow Depth Not available.
UV 5 out of 12
Pollen 7.80 out of 12
Ozone Good
PM2.5 Moderate
Flu Activity Not available.
METAR KMTC 221755Z 10005KT 10SM FEW035 FEW100 BKN180 27/19 A2998 RMK SLP157 T02660187 10266 20200 55000

More Conditions Fewer Conditions

10-Day Weather Forecast

Almanac

Astronomy

Aug. 22, 2014 Rise Set
Actual Time 6:45 AM EDT 8:22 PM EDT
Civil Twilight 6:15 AM EDT 8:51 PM EDT
Nautical Twilight 5:39 AM EDT 9:27 PM EDT
Astronomical Twilight 5:01 AM EDT 10:06 PM EDT
Moon 4:05 AM EDT 6:31 PM EDT
Length of Visible Light 14h 36m
Length of Day
13h 36m
Tomorrow will be 2m 41s shorter.
Waning Crescent, 7% of the Moon is Illuminated
Today
Waning Crescent
Aug 25
New
Sep 2
First Quarter
Sep 8
Full
Sep 15
Last Quarter

Today's Extremes

State Highs State Lows

Community

WunderPhotos

Upload Photos

1,746,216 photos uploaded!

Nearby

Air Quality

  Air Quality AQ Index Pollutant
Yesterday Good
PM10
Yesterday Good
OZONE
Current Moderate
PM2.5
Current Good
OZONE
Friday Moderate
PM2.5
Friday Good
OZONE
Saturday Moderate
PM2.5
Saturday Good
OZONE
Sunday Moderate
OZONE
Sunday Moderate
PM2.5

Snow Depth

Station Depth Elevation
No new snow has been reported.

Earthquake Activity

City Distance Mag. Time & Date
No recent earthquake activity has been reported nearby.
Minimum magnitude displayed is 2.5.

Coastal Water Temperatures

Place Temperature
No Stations Reporting

Nearby Weather Stations